Time;durP1;ratioP1;P1;durP2;ratioP2;P2;SDS_P1;SDS_P2;PMS_P1;PMS_P2;Temp;Humidity;BMP_temperature;BMP_pressure;BME280_temperature;BME280_humidity;BME280_pressure;Samples;Min_cycle;Max_cycle;Signal;HPM_P1;HPM_P2
2021/06/06 11:02:24;;;;;;;5.25;3.00;;;;;;;;;;1910474;56;20387;-58
2021/06/06 11:04:51;;;;;;;7.80;3.33;;;;;;;;;;1903857;56;88712;-58
2021/06/06 11:07:17;;;;;;;4.65;2.90;;;;;;;;;;1902693;56;20144;-59
2021/06/06 11:09:42;;;;;;;7.10;3.17;;;;;;;;;;1903792;56;20412;-60
2021/06/06 11:12:12;;;;;;;5.28;2.90;;;;;;;;;;1902921;75;20156;-61
2021/06/06 11:14:48;;;;;;;5.10;2.70;;;;;;;;;;1903760;75;20089;-59
2021/06/06 11:17:28;;;;;;;4.47;2.80;;;;;;;;;;1903332;67;20089;-64
2021/06/06 11:19:54;;;;;;;5.13;2.97;;;;;;;;;;1903600;75;20599;-58
2021/06/06 11:22:34;;;;;;;5.63;3.00;;;;;;;;;;1902785;56;20103;-60
2021/06/06 11:24:59;;;;;;;5.40;2.70;;;;;;;;;;1903488;75;20862;-62
2021/06/06 11:27:32;;;;;;;4.72;2.85;;;;;;;;;;1903755;67;20089;-61
2021/06/06 11:30:04;;;;;;;5.50;2.80;;;;;;;;;;1902121;75;20125;-63
2021/06/06 11:32:55;;;;;;;3.03;2.80;;;;;;;;;;1903606;67;20394;-61
2021/06/06 11:35:39;;;;;;;5.25;2.65;;;;;;;;;;1902804;75;20100;-60
2021/06/06 11:38:42;;;;;;;4.65;2.75;;;;;;;;;;1902808;75;20517;-57
2021/06/06 11:41:26;;;;;;;5.47;2.97;;;;;;;;;;1903566;75;20155;-61
2021/06/06 11:43:55;;;;;;;5.32;3.13;;;;;;;;;;1903497;75;20092;-61
2021/06/06 11:46:24;;;;;;;4.63;3.03;;;;;;;;;;1904172;67;20085;-61
2021/06/06 11:48:58;;;;;;;4.75;3.00;;;;;;;;;;1903549;75;20151;-60
2021/06/06 11:51:31;;;;;;;5.80;2.83;;;;;;;;;;1903413;67;20101;-61
2021/06/06 11:53:59;;;;;;;3.95;2.95;;;;;;;;;;1902389;75;20081;-60
2021/06/06 11:56:37;;;;;;;5.30;2.58;;;;;;;;;;1905058;67;20093;-63
2021/06/06 11:59:07;;;;;;;6.80;2.70;;;;;;;;;;1903816;67;20507;-62
2021/06/06 12:01:34;;;;;;;4.85;3.20;;;;;;;;;;1904519;67;20093;-52
2021/06/06 12:04:08;;;;;;;5.75;3.00;;;;;;;;;;1902889;75;20081;-58
2021/06/06 12:06:33;;;;;;;9.70;3.15;;;;;;;;;;1900988;75;20203;-56
2021/06/06 12:09:00;;;;;;;4.50;3.08;;;;;;;;;;1904433;67;20378;-56
2021/06/06 12:11:28;;;;;;;8.85;3.05;;;;;;;;;;1903604;67;20097;-55
2021/06/06 12:14:06;;;;;;;8.77;3.00;;;;;;;;;;1901927;75;20147;-57
2021/06/06 12:16:31;;;;;;;10.80;3.22;;;;;;;;;;1902009;67;20148;-54
2021/06/06 12:19:05;;;;;;;10.40;3.28;;;;;;;;;;1901853;75;20093;-55
2021/06/06 12:21:36;;;;;;;10.23;3.35;;;;;;;;;;1900661;67;20153;-58
2021/06/06 12:24:07;;;;;;;15.45;4.07;;;;;;;;;;1902797;67;20547;-60
2021/06/06 12:26:50;;;;;;;12.15;3.30;;;;;;;;;;1901853;75;20490;-55
2021/06/06 12:29:24;;;;;;;12.27;3.33;;;;;;;;;;1901851;75;20081;-55
2021/06/06 12:31:50;;;;;;;15.52;3.95;;;;;;;;;;1903383;75;20148;-56
2021/06/06 12:34:26;;;;;;;11.77;3.30;;;;;;;;;;1903253;67;20581;-55
2021/06/06 12:37:03;;;;;;;13.23;3.42;;;;;;;;;;1898932;75;20608;-56
2021/06/06 12:39:29;;;;;;;14.05;3.42;;;;;;;;;;1901179;75;20490;-58
2021/06/06 12:41:55;;;;;;;8.10;3.33;;;;;;;;;;1901625;75;20077;-58
2021/06/06 12:44:26;;;;;;;7.80;3.33;;;;;;;;;;1902424;60;20137;-54
2021/06/06 12:46:56;;;;;;;8.95;3.38;;;;;;;;;;1900841;75;20161;-57
2021/06/06 12:49:34;;;;;;;9.52;3.38;;;;;;;;;;1901705;75;20108;-56
2021/06/06 12:52:02;;;;;;;11.88;3.22;;;;;;;;;;1900819;75;20097;-57
2021/06/06 12:54:31;;;;;;;7.47;3.78;;;;;;;;;;1900586;75;20136;-56
2021/06/06 12:57:16;;;;;;;13.68;3.65;;;;;;;;;;1901956;67;20086;-56
2021/06/06 12:59:41;;;;;;;11.73;3.92;;;;;;;;;;1904924;62;20092;-62
2021/06/06 13:02:14;;;;;;;8.10;3.90;;;;;;;;;;1894948;75;20089;-58
2021/06/06 13:04:40;;;;;;;7.03;3.30;;;;;;;;;;1894268;75;20093;-60
2021/06/06 13:07:23;;;;;;;8.38;3.47;;;;;;;;;;1898205;67;20098;-58
2021/06/06 13:09:49;;;;;;;6.40;3.58;;;;;;;;;;1897303;75;20513;-60
2021/06/06 13:12:40;;;;;;;7.95;3.47;;;;;;;;;;1897345;75;20133;-59
2021/06/06 13:15:13;;;;;;;8.33;3.50;;;;;;;;;;1896409;75;20161;-60
2021/06/06 13:17:52;;;;;;;7.50;3.72;;;;;;;;;;1895957;67;20323;-60
2021/06/06 13:20:18;;;;;;;7.88;3.40;;;;;;;;;;1895566;75;20400;-61
2021/06/06 13:23:08;;;;;;;8.45;3.45;;;;;;;;;;1896404;75;20089;-59
2021/06/06 13:25:41;;;;;;;4.88;3.63;;;;;;;;;;1899824;67;20094;-56
2021/06/06 13:28:33;;;;;;;7.68;3.70;;;;;;;;;;1898404;67;20093;-59
2021/06/06 13:31:26;;;;;;;7.75;3.60;;;;;;;;;;1896460;75;20398;-59
2021/06/06 13:33:52;;;;;;;6.93;3.97;;;;;;;;;;1897426;75;20097;-59
2021/06/06 13:36:17;;;;;;;8.40;3.60;;;;;;;;;;1897284;75;20086;-58
2021/06/06 13:38:43;;;;;;;6.65;3.58;;;;;;;;;;1897068;75;20086;-59
2021/06/06 13:41:08;;;;;;;8.27;3.95;;;;;;;;;;1898403;67;20383;-59
2021/06/06 13:43:36;;;;;;;7.10;3.83;;;;;;;;;;1898469;75;20097;-58
2021/06/06 13:46:02;;;;;;;4.82;3.70;;;;;;;;;;1899213;75;20085;-59
2021/06/06 13:48:28;;;;;;;8.75;4.20;;;;;;;;;;1897928;75;20084;-59
2021/06/06 13:50:53;;;;;;;7.07;3.38;;;;;;;;;;1895830;68;20151;-63
2021/06/06 13:53:21;;;;;;;5.07;3.65;;;;;;;;;;1897067;75;20093;-63
2021/06/06 13:55:46;;;;;;;6.00;3.83;;;;;;;;;;1896253;75;20097;-59
2021/06/06 13:58:12;;;;;;;6.35;3.40;;;;;;;;;;1897239;56;20086;-62
2021/06/06 14:00:39;;;;;;;7.20;3.53;;;;;;;;;;1899675;67;20081;-61
2021/06/06 14:03:08;;;;;;;5.63;3.90;;;;;;;;;;1898976;67;20089;-60
2021/06/06 14:05:33;;;;;;;5.05;3.88;;;;;;;;;;1897126;75;20098;-60
2021/06/06 14:07:59;;;;;;;3.97;3.28;;;;;;;;;;1896114;75;20120;-62
2021/06/06 14:10:34;;;;;;;7.53;3.50;;;;;;;;;;1896101;75;20129;-58
2021/06/06 14:12:59;;;;;;;5.72;3.75;;;;;;;;;;1896462;67;20116;-62
2021/06/06 14:15:28;;;;;;;4.32;3.53;;;;;;;;;;1896310;75;20104;-62
2021/06/06 14:17:53;;;;;;;7.13;3.40;;;;;;;;;;1901112;75;20088;-62
2021/06/06 14:20:20;;;;;;;6.03;3.67;;;;;;;;;;1901366;75;20093;-63
2021/06/06 14:22:46;;;;;;;5.20;3.70;;;;;;;;;;1899151;75;20081;-62
2021/06/06 14:25:14;;;;;;;5.60;3.75;;;;;;;;;;1898977;67;20081;-62
2021/06/06 14:27:39;;;;;;;5.60;3.63;;;;;;;;;;1898908;75;20097;-62
2021/06/06 14:30:06;;;;;;;4.28;3.55;;;;;;;;;;1898727;75;20503;-62
2021/06/06 14:32:32;;;;;;;5.00;3.67;;;;;;;;;;1901583;75;20077;-62
2021/06/06 14:34:57;;;;;;;4.82;3.83;;;;;;;;;;1901694;67;20175;-62
2021/06/06 14:37:23;;;;;;;5.53;3.80;;;;;;;;;;1898814;75;20094;-63
2021/06/06 14:39:48;;;;;;;5.72;3.60;;;;;;;;;;1895832;75;20144;-62
2021/06/06 14:42:14;;;;;;;6.43;3.92;;;;;;;;;;1898816;75;20394;-61
2021/06/06 14:44:39;;;;;;;8.35;4.28;;;;;;;;;;1899234;75;20085;-62
2021/06/06 14:47:05;;;;;;;4.95;3.30;;;;;;;;;;1899352;67;20183;-63
2021/06/06 14:49:30;;;;;;;8.35;3.70;;;;;;;;;;1898728;75;20081;-63
2021/06/06 14:51:55;;;;;;;7.82;4.03;;;;;;;;;;1898960;67;20189;-61
2021/06/06 14:54:21;;;;;;;8.93;4.05;;;;;;;;;;1900725;67;20089;-61
2021/06/06 14:56:49;;;;;;;7.18;3.53;;;;;;;;;;1899289;67;20108;-62
2021/06/06 14:59:15;;;;;;;5.72;3.60;;;;;;;;;;1899982;67;20659;-62
2021/06/06 15:01:40;;;;;;;7.60;3.97;;;;;;;;;;1899308;67;20088;-61
2021/06/06 15:04:06;;;;;;;4.95;4.10;;;;;;;;;;1895737;75;20522;-62
2021/06/06 15:06:32;;;;;;;8.23;4.15;;;;;;;;;;1896260;75;20082;-62
2021/06/06 15:08:57;;;;;;;9.05;4.30;;;;;;;;;;1898881;75;20085;-65
2021/06/06 15:11:22;;;;;;;9.68;5.38;;;;;;;;;;1895793;75;20101;-61
2021/06/06 15:13:48;;;;;;;10.10;5.68;;;;;;;;;;1900103;67;20077;-64
2021/06/06 15:16:19;;;;;;;10.75;6.00;;;;;;;;;;1900225;75;20099;-64
2021/06/06 15:18:47;;;;;;;9.65;5.93;;;;;;;;;;1901012;75;20093;-61
2021/06/06 15:21:16;;;;;;;10.65;6.80;;;;;;;;;;1901132;75;20103;-63
2021/06/06 15:23:43;;;;;;;10.38;6.57;;;;;;;;;;1894303;67;20109;-61
2021/06/06 15:26:09;;;;;;;10.80;6.30;;;;;;;;;;1900384;67;20093;-62
2021/06/06 15:28:35;;;;;;;7.38;5.40;;;;;;;;;;1899490;56;20100;-60
2021/06/06 15:31:04;;;;;;;9.93;5.68;;;;;;;;;;1898084;75;20510;-60
2021/06/06 15:33:29;;;;;;;9.35;5.68;;;;;;;;;;1901454;75;20089;-58
2021/06/06 15:35:56;;;;;;;10.15;5.00;;;;;;;;;;1898429;67;20086;-65
2021/06/06 15:38:25;;;;;;;7.03;4.80;;;;;;;;;;1898635;75;20372;-62
2021/06/06 15:40:51;;;;;;;6.88;4.97;;;;;;;;;;1899014;67;20086;-64
2021/06/06 15:43:17;;;;;;;7.90;5.00;;;;;;;;;;1895464;75;20089;-61
2021/06/06 15:45:44;;;;;;;7.28;4.85;;;;;;;;;;1896617;67;20082;-64
2021/06/06 15:48:10;;;;;;;7.78;4.88;;;;;;;;;;1895868;75;20204;-59
2021/06/06 15:50:38;;;;;;;6.78;4.85;;;;;;;;;;1896318;75;20610;-63
2021/06/06 15:53:03;;;;;;;8.50;4.53;;;;;;;;;;1893138;75;20102;-62
2021/06/06 15:55:29;;;;;;;8.43;4.72;;;;;;;;;;1898653;67;20228;-62
2021/06/06 15:57:55;;;;;;;8.35;4.53;;;;;;;;;;1896966;67;20097;-61
2021/06/06 16:00:23;;;;;;;9.98;4.20;;;;;;;;;;1901576;56;20093;-58
2021/06/06 16:02:52;;;;;;;6.38;4.25;;;;;;;;;;1896444;75;20521;-62
2021/06/06 16:05:18;;;;;;;11.80;4.65;;;;;;;;;;1899252;75;20419;-61
2021/06/06 16:07:43;;;;;;;11.73;4.85;;;;;;;;;;1900779;67;20088;-61
2021/06/06 16:10:11;;;;;;;9.27;4.65;;;;;;;;;;1899212;75;20101;-61
2021/06/06 16:12:36;;;;;;;11.63;4.85;;;;;;;;;;1899094;75;20092;-61
2021/06/06 16:15:02;;;;;;;10.10;4.57;;;;;;;;;;1899042;67;20089;-61
2021/06/06 16:17:27;;;;;;;9.85;4.93;;;;;;;;;;1900629;75;20078;-61
2021/06/06 16:19:54;;;;;;;9.82;5.15;;;;;;;;;;1899087;67;20155;-60
2021/06/06 16:22:20;;;;;;;9.70;4.68;;;;;;;;;;1897307;75;20097;-61
2021/06/06 16:24:45;;;;;;;10.00;5.15;;;;;;;;;;1896760;75;20097;-61
2021/06/06 16:27:12;;;;;;;11.90;4.85;;;;;;;;;;1896326;75;20097;-61
2021/06/06 16:29:37;;;;;;;9.13;4.53;;;;;;;;;;1897246;67;20088;-59
2021/06/06 16:32:04;;;;;;;10.40;4.63;;;;;;;;;;1895905;75;20086;-61
2021/06/06 16:34:31;;;;;;;7.43;5.15;;;;;;;;;;1893372;75;20105;-59
2021/06/06 16:36:56;;;;;;;8.95;4.78;;;;;;;;;;1895332;75;20161;-60
2021/06/06 16:39:22;;;;;;;7.72;4.80;;;;;;;;;;1896891;67;20496;-61
2021/06/06 16:41:47;;;;;;;7.43;5.07;;;;;;;;;;1895665;67;20096;-60
2021/06/06 16:44:13;;;;;;;6.00;5.20;;;;;;;;;;1895962;75;20089;-60
2021/06/06 16:46:38;;;;;;;7.35;5.10;;;;;;;;;;1895336;75;20100;-60
2021/06/06 16:49:06;;;;;;;8.63;5.15;;;;;;;;;;1896957;75;20806;-59
2021/06/06 16:51:31;;;;;;;7.32;5.18;;;;;;;;;;1897237;67;20097;-61
2021/06/06 16:53:57;;;;;;;9.38;5.93;;;;;;;;;;1892244;75;20097;-61
2021/06/06 16:56:23;;;;;;;5.95;4.85;;;;;;;;;;1895151;75;20428;-61
2021/06/06 16:58:48;;;;;;;6.03;5.03;;;;;;;;;;1897337;75;20307;-60
2021/06/06 17:01:16;;;;;;;11.07;5.00;;;;;;;;;;1899776;67;20989;-59
2021/06/06 17:03:42;;;;;;;6.18;4.80;;;;;;;;;;1895939;67;20561;-60
2021/06/06 17:06:07;;;;;;;11.98;4.80;;;;;;;;;;1896459;67;20100;-60
2021/06/06 17:08:33;;;;;;;8.02;4.97;;;;;;;;;;1897347;75;20218;-59
2021/06/06 17:10:58;;;;;;;7.90;5.05;;;;;;;;;;1897438;75;20101;-59
2021/06/06 17:13:28;;;;;;;6.57;4.47;;;;;;;;;;1897289;67;21405;-59
2021/06/06 17:15:55;;;;;;;8.85;5.07;;;;;;;;;;1896161;75;20089;-59
2021/06/06 17:18:21;;;;;;;4.85;3.95;;;;;;;;;;1899029;67;20086;-60
2021/06/06 17:20:46;;;;;;;8.05;4.68;;;;;;;;;;1897428;75;20108;-59
2021/06/06 17:23:14;;;;;;;6.63;4.43;;;;;;;;;;1897410;75;20085;-60
2021/06/06 17:25:39;;;;;;;8.52;4.55;;;;;;;;;;1897608;67;20450;-59
2021/06/06 17:28:05;;;;;;;7.95;4.50;;;;;;;;;;1896922;75;20093;-60
2021/06/06 17:30:32;;;;;;;6.20;4.30;;;;;;;;;;1897126;75;20144;-60
2021/06/06 17:32:59;;;;;;;4.63;3.97;;;;;;;;;;1897299;75;20152;-60
2021/06/06 17:35:30;;;;;;;6.22;4.60;;;;;;;;;;1898122;67;20086;-60
2021/06/06 17:37:56;;;;;;;8.65;4.22;;;;;;;;;;1897032;75;20081;-60
2021/06/06 17:40:22;;;;;;;9.27;4.45;;;;;;;;;;1896983;75;20089;-60
2021/06/06 17:42:47;;;;;;;8.65;4.40;;;;;;;;;;1894886;75;20086;-59
2021/06/06 17:45:13;;;;;;;6.18;4.40;;;;;;;;;;1895565;75;20156;-58
2021/06/06 17:47:38;;;;;;;7.15;4.78;;;;;;;;;;1897662;67;20085;-59
2021/06/06 17:50:09;;;;;;;10.13;5.05;;;;;;;;;;1895326;75;20086;-60
2021/06/06 17:52:34;;;;;;;9.02;4.78;;;;;;;;;;1892742;75;20086;-58
2021/06/06 17:55:00;;;;;;;9.07;4.72;;;;;;;;;;1898939;67;20096;-60
2021/06/06 17:57:26;;;;;;;8.90;4.43;;;;;;;;;;1897424;67;20117;-61
2021/06/06 17:59:51;;;;;;;9.25;4.35;;;;;;;;;;1897091;67;20512;-56
2021/06/06 18:02:17;;;;;;;10.52;4.60;;;;;;;;;;1897246;75;20092;-57
2021/06/06 18:04:43;;;;;;;6.30;4.40;;;;;;;;;;1897343;67;20539;-60
2021/06/06 18:07:09;;;;;;;7.63;5.32;;;;;;;;;;1896814;75;20085;-57
2021/06/06 18:09:34;;;;;;;8.25;4.82;;;;;;;;;;1897523;67;20089;-60
2021/06/06 18:11:59;;;;;;;7.50;4.53;;;;;;;;;;1894967;75;20151;-55
2021/06/06 18:14:27;;;;;;;6.53;4.45;;;;;;;;;;1896883;75;20086;-60
2021/06/06 18:16:52;;;;;;;6.75;4.30;;;;;;;;;;1896747;75;20093;-59
2021/06/06 18:19:18;;;;;;;5.95;4.30;;;;;;;;;;1897515;67;20093;-60
2021/06/06 18:21:44;;;;;;;14.82;4.90;;;;;;;;;;1893543;75;20082;-59
2021/06/06 18:24:11;;;;;;;7.95;4.80;;;;;;;;;;1893680;75;20109;-58
2021/06/06 18:26:37;;;;;;;11.27;4.75;;;;;;;;;;1896113;75;20086;-59
2021/06/06 18:29:02;;;;;;;10.60;4.90;;;;;;;;;;1898733;75;20089;-57
2021/06/06 18:31:28;;;;;;;8.57;4.93;;;;;;;;;;1899914;67;20387;-60
2021/06/06 18:33:53;;;;;;;9.35;4.47;;;;;;;;;;1898881;75;20475;-59
2021/06/06 18:36:20;;;;;;;12.07;4.82;;;;;;;;;;1898508;75;20101;-59
2021/06/06 18:38:46;;;;;;;10.13;4.85;;;;;;;;;;1898760;75;20092;-59
2021/06/06 18:41:11;;;;;;;8.90;4.90;;;;;;;;;;1899356;67;20107;-59
2021/06/06 18:43:36;;;;;;;10.88;4.80;;;;;;;;;;1898823;75;20081;-59
2021/06/06 18:46:03;;;;;;;8.80;4.82;;;;;;;;;;1900056;75;20495;-59
2021/06/06 18:48:28;;;;;;;11.57;4.93;;;;;;;;;;1901128;75;20089;-60
2021/06/06 18:50:54;;;;;;;9.30;4.60;;;;;;;;;;1901531;75;20091;-60
2021/06/06 18:53:21;;;;;;;9.48;5.03;;;;;;;;;;1899492;67;20112;-59
2021/06/06 18:55:49;;;;;;;10.93;5.15;;;;;;;;;;1895847;75;20089;-59
2021/06/06 18:58:14;;;;;;;9.38;4.90;;;;;;;;;;1895607;75;20086;-60
2021/06/06 19:00:46;;;;;;;9.43;5.60;;;;;;;;;;1897263;62;20089;-51
2021/06/06 19:03:11;;;;;;;10.82;6.00;;;;;;;;;;1895129;67;20108;-53
2021/06/06 19:05:37;;;;;;;11.93;6.78;;;;;;;;;;1894938;75;20094;-49
2021/06/06 19:08:05;;;;;;;10.75;6.82;;;;;;;;;;1894482;75;20083;-54
2021/06/06 19:10:30;;;;;;;9.38;6.57;;;;;;;;;;1895085;75;20155;-52
2021/06/06 19:13:02;;;;;;;9.57;6.90;;;;;;;;;;1893445;67;20089;-51
2021/06/06 19:15:27;;;;;;;10.15;6.82;;;;;;;;;;1894807;67;20502;-52
2021/06/06 19:17:53;;;;;;;7.45;6.57;;;;;;;;;;1891964;75;20149;-53
2021/06/06 19:20:19;;;;;;;9.13;7.05;;;;;;;;;;1894694;75;20196;-51
2021/06/06 19:22:44;;;;;;;9.65;7.30;;;;;;;;;;1894967;75;20368;-54
2021/06/06 19:25:11;;;;;;;12.57;7.38;;;;;;;;;;1894754;67;20090;-56
2021/06/06 19:27:36;;;;;;;9.52;7.68;;;;;;;;;;1891742;75;20102;-57
2021/06/06 19:30:04;;;;;;;11.60;8.00;;;;;;;;;;1895491;75;20101;-52
2021/06/06 19:32:30;;;;;;;10.55;7.70;;;;;;;;;;1898487;75;20089;-51
2021/06/06 19:34:55;;;;;;;9.80;7.90;;;;;;;;;;1896221;75;20458;-53
2021/06/06 19:37:20;;;;;;;11.02;8.05;;;;;;;;;;1895456;67;20086;-53
2021/06/06 19:39:46;;;;;;;10.50;7.97;;;;;;;;;;1895419;75;20109;-54
2021/06/06 19:42:12;;;;;;;10.82;7.93;;;;;;;;;;1894850;75;20101;-53
2021/06/06 19:44:37;;;;;;;9.93;8.23;;;;;;;;;;1892651;75;20105;-53
2021/06/06 19:47:10;;;;;;;9.45;8.13;;;;;;;;;;1892153;75;20209;-53
2021/06/06 19:49:43;;;;;;;10.45;8.13;;;;;;;;;;1892477;75;20581;-52
2021/06/06 19:52:09;;;;;;;10.65;8.55;;;;;;;;;;1892737;75;20496;-52
2021/06/06 19:54:35;;;;;;;11.00;8.48;;;;;;;;;;1895375;75;20819;-50
2021/06/06 19:57:00;;;;;;;11.90;8.38;;;;;;;;;;1895111;67;20090;-54
2021/06/06 19:59:26;;;;;;;10.35;8.57;;;;;;;;;;1896050;67;20082;-54
2021/06/06 20:01:51;;;;;;;12.05;8.75;;;;;;;;;;1896388;67;20462;-55
2021/06/06 20:04:17;;;;;;;10.23;8.35;;;;;;;;;;1895290;75;20097;-53
2021/06/06 20:06:44;;;;;;;9.75;8.10;;;;;;;;;;1896104;67;20102;-52
2021/06/06 20:09:09;;;;;;;10.13;8.32;;;;;;;;;;1894389;67;20086;-55
2021/06/06 20:11:41;;;;;;;9.57;8.00;;;;;;;;;;1894501;75;20087;-57
2021/06/06 20:14:14;;;;;;;9.95;7.80;;;;;;;;;;1893571;75;20097;-57
2021/06/06 20:16:40;;;;;;;8.65;7.75;;;;;;;;;;1896428;75;20097;-56
2021/06/06 20:19:05;;;;;;;10.98;8.00;;;;;;;;;;1895886;67;20511;-55
2021/06/06 20:21:53;;;;;;;9.15;7.65;;;;;;;;;;1894759;67;20086;-57
2021/06/06 20:24:19;;;;;;;11.10;8.10;;;;;;;;;;1895672;75;20565;-57
2021/06/06 20:26:44;;;;;;;8.30;7.38;;;;;;;;;;1893308;75;20174;-52
2021/06/06 20:29:10;;;;;;;8.55;7.45;;;;;;;;;;1892901;76;20086;-52
2021/06/06 20:31:39;;;;;;;12.48;7.32;;;;;;;;;;1896272;67;20137;-53
2021/06/06 20:36:36;;;;;;;9.95;7.43;;;;;;;;;;1891462;76;20105;-53
2021/06/06 20:39:04;;;;;;;8.40;7.43;;;;;;;;;;1892434;76;20105;-57
2021/06/06 20:41:31;;;;;;;9.13;7.40;;;;;;;;;;1894979;67;20090;-54
2021/06/06 20:43:58;;;;;;;9.38;7.15;;;;;;;;;;1893413;67;20098;-53
2021/06/06 20:46:24;;;;;;;8.90;7.55;;;;;;;;;;1895069;75;20086;-55
2021/06/06 20:48:49;;;;;;;12.07;7.68;;;;;;;;;;1892567;75;20624;-55
2021/06/06 20:51:15;;;;;;;9.32;7.40;;;;;;;;;;1895693;75;20089;-57
2021/06/06 20:53:40;;;;;;;9.48;6.85;;;;;;;;;;1896075;67;20167;-53
2021/06/06 20:56:06;;;;;;;10.23;7.50;;;;;;;;;;1895349;75;20085;-56
2021/06/06 20:58:31;;;;;;;8.60;7.13;;;;;;;;;;1892765;75;20090;-57
2021/06/06 21:00:57;;;;;;;8.65;6.95;;;;;;;;;;1890874;75;20395;-57
2021/06/06 21:03:23;;;;;;;9.05;7.28;;;;;;;;;;1893531;75;20165;-54
2021/06/06 21:05:50;;;;;;;8.63;7.30;;;;;;;;;;1894822;67;20103;-53
2021/06/06 21:08:16;;;;;;;10.30;7.72;;;;;;;;;;1893143;75;20471;-56
2021/06/06 21:10:41;;;;;;;8.90;7.03;;;;;;;;;;1893528;75;20094;-54
2021/06/06 21:13:07;;;;;;;9.77;7.07;;;;;;;;;;1893585;75;20439;-55
2021/06/06 21:15:33;;;;;;;8.88;6.97;;;;;;;;;;1894535;67;20184;-53
2021/06/06 21:17:59;;;;;;;8.02;7.22;;;;;;;;;;1893208;75;20641;-55
2021/06/06 21:20:26;;;;;;;8.45;7.40;;;;;;;;;;1893617;75;20105;-55
2021/06/06 21:22:52;;;;;;;7.97;7.10;;;;;;;;;;1894194;75;20178;-54
2021/06/06 21:25:17;;;;;;;10.63;8.43;;;;;;;;;;1890512;75;20138;-54
2021/06/06 21:27:43;;;;;;;10.18;7.53;;;;;;;;;;1893707;67;20107;-59
2021/06/06 21:30:13;;;;;;;8.73;7.50;;;;;;;;;;1893454;75;20145;-54
2021/06/06 21:32:39;;;;;;;;;;;;;;;;;;1891012;75;20096;-53
2021/06/06 21:35:05;;;;;;;8.63;7.22;;;;;;;;;;1893492;75;19953;-53
2021/06/06 21:37:30;;;;;;;8.15;7.30;;;;;;;;;;1893614;67;20088;-55
2021/06/06 21:39:55;;;;;;;9.00;7.90;;;;;;;;;;1894042;75;20139;-55
2021/06/06 21:42:21;;;;;;;9.02;6.93;;;;;;;;;;1893458;75;20090;-56
2021/06/06 21:44:46;;;;;;;8.75;7.30;;;;;;;;;;1893308;75;20090;-54
2021/06/06 21:47:11;;;;;;;9.35;7.45;;;;;;;;;;1890410;75;20106;-54
2021/06/06 21:49:37;;;;;;;8.93;6.95;;;;;;;;;;1894562;67;20105;-56
2021/06/06 21:52:04;;;;;;;8.90;7.15;;;;;;;;;;1893497;75;20129;-54
2021/06/06 21:54:30;;;;;;;7.53;6.45;;;;;;;;;;1894013;67;20102;-54
2021/06/06 21:56:55;;;;;;;7.95;6.93;;;;;;;;;;1892712;75;20091;-54
2021/06/06 21:59:20;;;;;;;9.45;6.80;;;;;;;;;;1893355;67;20098;-55
2021/06/06 22:01:46;;;;;;;8.27;7.40;;;;;;;;;;1897238;75;20152;-52
2021/06/06 22:04:13;;;;;;;8.00;7.22;;;;;;;;;;1896602;67;20194;-54
2021/06/06 22:06:38;;;;;;;8.90;6.90;;;;;;;;;;1892904;75;20090;-52
2021/06/06 22:09:10;;;;;;;8.02;6.97;;;;;;;;;;1895480;67;20101;-53
2021/06/06 22:11:35;;;;;;;9.60;6.72;;;;;;;;;;1895884;67;20089;-55
2021/06/06 22:14:01;;;;;;;9.10;7.05;;;;;;;;;;1895989;75;20093;-56
2021/06/06 22:16:26;;;;;;;7.95;7.22;;;;;;;;;;1897615;75;20089;-54
2021/06/06 22:18:57;;;;;;;8.82;7.22;;;;;;;;;;1898751;75;20097;-55
2021/06/06 22:22:01;;;;;;;7.40;6.45;;;;;;;;;;1897322;67;20085;-56
2021/06/06 22:25:05;;;;;;;7.60;6.80;;;;;;;;;;1896423;75;20092;-53
2021/06/06 22:28:08;;;;;;;8.25;7.07;;;;;;;;;;1895555;75;20090;-54
2021/06/06 22:31:11;;;;;;;8.30;7.32;;;;;;;;;;1896826;75;20099;-53
2021/06/06 22:34:14;;;;;;;7.40;6.70;;;;;;;;;;1897707;67;20469;-55
2021/06/06 22:37:17;;;;;;;7.70;6.90;;;;;;;;;;1896351;75;20086;-55
2021/06/06 22:40:20;;;;;;;8.65;7.22;;;;;;;;;;1896406;75;20098;-54
2021/06/06 22:43:22;;;;;;;8.05;7.22;;;;;;;;;;1896410;75;20147;-57
2021/06/06 22:46:25;;;;;;;7.80;6.82;;;;;;;;;;1897554;75;20097;-54
2021/06/06 22:49:28;;;;;;;8.48;7.25;;;;;;;;;;1898867;75;20116;-56
2021/06/06 22:52:31;;;;;;;7.90;6.82;;;;;;;;;;1898741;75;20078;-51
2021/06/06 22:55:34;;;;;;;8.70;7.20;;;;;;;;;;1896097;67;20090;-53
2021/06/06 22:58:36;;;;;;;8.68;7.68;;;;;;;;;;1896161;75;20093;-58
2021/06/06 23:01:39;;;;;;;8.48;7.07;;;;;;;;;;1897316;75;20494;-54
2021/06/06 23:04:42;;;;;;;8.38;7.43;;;;;;;;;;1898878;75;20081;-53
2021/06/06 23:07:45;;;;;;;9.63;7.80;;;;;;;;;;1896546;67;20575;-56
2021/06/06 23:10:47;;;;;;;10.18;7.80;;;;;;;;;;1896039;68;20163;-56
2021/06/06 23:13:51;;;;;;;9.00;7.70;;;;;;;;;;1893502;75;20523;-55
2021/06/06 23:16:55;;;;;;;10.23;8.27;;;;;;;;;;1897247;67;20082;-56
2021/06/06 23:19:24;;;;;;;9.98;8.20;;;;;;;;;;1896272;75;20092;-59
2021/06/06 23:22:09;;;;;;;10.77;8.73;;;;;;;;;;1896273;75;20163;-54
2021/06/06 23:24:38;;;;;;;9.77;7.63;;;;;;;;;;1895924;75;20096;-56
2021/06/06 23:27:04;;;;;;;10.00;8.10;;;;;;;;;;1895599;75;20086;-57
2021/06/06 23:29:30;;;;;;;9.20;8.25;;;;;;;;;;1895990;67;20093;-62
2021/06/06 23:31:55;;;;;;;10.20;8.40;;;;;;;;;;1898425;75;20090;-57
2021/06/06 23:34:21;;;;;;;8.90;8.00;;;;;;;;;;1895897;75;20085;-56
2021/06/06 23:36:48;;;;;;;9.13;7.68;;;;;;;;;;1896510;75;20082;-58
2021/06/06 23:39:13;;;;;;;9.63;8.45;;;;;;;;;;1897662;67;20082;-57
2021/06/06 23:41:39;;;;;;;9.90;8.07;;;;;;;;;;1892918;75;20141;-55
2021/06/06 23:44:05;;;;;;;9.25;7.75;;;;;;;;;;1893123;75;20082;-62
2021/06/06 23:46:30;;;;;;;9.98;8.50;;;;;;;;;;1894506;75;20097;-57
2021/06/06 23:48:55;;;;;;;9.40;7.75;;;;;;;;;;1898501;75;20167;-53
2021/06/06 23:51:21;;;;;;;9.77;8.77;;;;;;;;;;1894162;67;20090;-55
2021/06/06 23:53:47;;;;;;;10.10;8.80;;;;;;;;;;1894807;75;20082;-55
2021/06/06 23:56:12;;;;;;;9.00;8.02;;;;;;;;;;1892769;68;20105;-54
2021/06/06 23:58:38;;;;;;;9.82;8.82;;;;;;;;;;1895753;67;20086;-54
